createdAt,value
2022-09-06T00:00:44.621Z,0.00
2022-09-06T00:01:44.609Z,0.00
2022-09-06T00:02:44.661Z,0.00
2022-09-06T00:03:44.645Z,0.00
2022-09-06T00:04:44.610Z,0.00
2022-09-06T00:05:44.573Z,0.00
2022-09-06T00:06:44.570Z,0.00
2022-09-06T00:07:44.560Z,0.00
2022-09-06T00:08:44.559Z,0.00
2022-09-06T00:09:44.566Z,0.00
2022-09-06T00:10:44.544Z,0.00
2022-09-06T00:11:44.531Z,0.00
2022-09-06T00:12:44.533Z,0.00
2022-09-06T00:13:44.535Z,0.00
2022-09-06T00:14:44.517Z,0.00
2022-09-06T00:15:44.528Z,0.00
2022-09-06T00:16:44.493Z,0.00
2022-09-06T00:17:44.490Z,0.00
2022-09-06T00:18:44.480Z,0.00
2022-09-06T00:19:44.498Z,0.00
2022-09-06T00:20:44.478Z,0.00
2022-09-06T00:21:44.456Z,0.00
2022-09-06T00:22:44.459Z,0.00
2022-09-06T00:23:44.445Z,0.00
2022-09-06T00:24:44.464Z,0.00
2022-09-06T00:25:44.427Z,0.00
2022-09-06T00:26:44.449Z,0.00
2022-09-06T00:27:44.419Z,0.00
2022-09-06T00:28:44.404Z,0.00
2022-09-06T00:29:44.408Z,0.00
2022-09-06T00:30:44.426Z,0.00
2022-09-06T00:31:44.399Z,0.00
2022-09-06T00:32:44.408Z,0.00
2022-09-06T00:33:44.390Z,0.00
2022-09-06T00:34:44.366Z,0.00
2022-09-06T00:35:44.373Z,0.00
2022-09-06T00:36:44.348Z,0.00
2022-09-06T00:37:44.363Z,0.00
2022-09-06T00:38:44.356Z,0.00
2022-09-06T00:39:44.405Z,0.00
2022-09-06T00:40:44.343Z,0.00
2022-09-06T00:41:44.312Z,0.00
2022-09-06T00:42:44.312Z,0.00
2022-09-06T00:43:44.324Z,0.00
2022-09-06T00:44:44.293Z,0.00
2022-09-06T00:45:44.319Z,0.00
2022-09-06T00:46:44.320Z,0.00
2022-09-06T00:47:44.280Z,0.00
2022-09-06T00:48:44.263Z,0.00
2022-09-06T00:49:44.285Z,0.00
2022-09-06T00:50:44.260Z,0.00
2022-09-06T00:51:44.241Z,0.00
2022-09-06T00:52:44.242Z,0.00
2022-09-06T00:53:44.239Z,0.00
2022-09-06T00:54:44.230Z,0.00
2022-09-06T00:55:44.237Z,0.00
2022-09-06T00:56:44.204Z,0.00
2022-09-06T00:57:44.203Z,0.00
2022-09-06T00:58:44.190Z,0.00
2022-09-06T00:59:44.184Z,0.00
2022-09-06T01:00:44.209Z,0.00
2022-09-06T01:01:44.263Z,0.00
2022-09-06T01:02:44.238Z,0.00
2022-09-06T01:03:44.169Z,0.00
2022-09-06T01:04:44.149Z,0.00
2022-09-06T01:05:44.139Z,0.00
2022-09-06T01:06:44.160Z,0.00
2022-09-06T01:07:44.121Z,0.00
2022-09-06T01:08:44.122Z,0.00
2022-09-06T01:09:44.114Z,0.00
2022-09-06T01:10:44.105Z,0.00
2022-09-06T01:11:44.095Z,0.00
2022-09-06T01:12:44.106Z,0.00
2022-09-06T01:13:44.080Z,0.00
2022-09-06T01:14:44.081Z,0.00
2022-09-06T01:15:44.130Z,0.00
2022-09-06T01:16:44.083Z,0.00
2022-09-06T01:17:44.055Z,0.00
2022-09-06T01:18:44.073Z,0.00
2022-09-06T01:19:44.038Z,0.00
2022-09-06T01:20:44.042Z,0.00
2022-09-06T01:21:44.028Z,0.00
2022-09-06T01:22:44.060Z,0.00
2022-09-06T01:23:44.015Z,0.00
2022-09-06T01:24:44.011Z,0.00
2022-09-06T01:25:43.996Z,0.00
2022-09-06T01:26:43.993Z,0.00
2022-09-06T01:27:43.992Z,0.00
2022-09-06T01:28:44.004Z,0.00
2022-09-06T01:29:43.984Z,0.00
2022-09-06T01:30:44.007Z,0.00
2022-09-06T01:31:43.975Z,0.00
2022-09-06T01:32:43.974Z,0.00
2022-09-06T01:33:43.951Z,0.00
2022-09-06T01:34:43.934Z,0.00
2022-09-06T01:35:43.948Z,0.00
2022-09-06T01:37:06.284Z,0.00
2022-09-06T01:37:44.918Z,0.00
2022-09-06T01:38:43.922Z,0.00
2022-09-06T01:39:43.934Z,0.00
2022-09-06T01:40:43.886Z,0.00
2022-09-06T01:41:43.885Z,0.00
2022-09-06T01:42:43.881Z,0.00
2022-09-06T01:43:43.897Z,0.00
2022-09-06T01:44:43.881Z,0.00
2022-09-06T01:45:43.912Z,0.00
2022-09-06T01:46:43.837Z,0.00
2022-09-06T01:47:43.837Z,0.00
2022-09-06T01:48:43.841Z,0.00
2022-09-06T01:49:43.821Z,0.00
2022-09-06T01:50:43.820Z,0.00
2022-09-06T01:51:43.805Z,0.00
2022-09-06T01:52:43.798Z,0.00
2022-09-06T01:53:43.807Z,0.00
2022-09-06T01:54:43.818Z,0.00
2022-09-06T01:55:43.779Z,0.00
2022-09-06T01:56:43.789Z,0.00
2022-09-06T01:57:43.763Z,0.00
2022-09-06T01:58:43.766Z,0.00
2022-09-06T01:59:43.763Z,0.00
2022-09-06T02:00:43.740Z,0.00
2022-09-06T02:01:43.851Z,0.00
2022-09-06T02:02:43.755Z,0.00
2022-09-06T02:03:43.722Z,0.00
2022-09-06T02:04:43.701Z,0.00
2022-09-06T02:05:43.706Z,0.00
2022-09-06T02:06:43.696Z,0.00
2022-09-06T02:07:43.706Z,0.00
2022-09-06T02:08:43.697Z,0.00
2022-09-06T02:09:43.665Z,0.00
2022-09-06T02:10:43.693Z,0.00
2022-09-06T02:11:43.658Z,0.00
2022-09-06T02:12:43.653Z,0.00
2022-09-06T02:13:43.643Z,0.00
2022-09-06T02:14:43.636Z,0.00
2022-09-06T02:15:43.649Z,0.00
2022-09-06T02:16:43.643Z,0.00
2022-09-06T02:17:43.606Z,0.00
2022-09-06T02:18:43.600Z,0.00
2022-09-06T02:19:43.595Z,0.00
2022-09-06T02:20:43.593Z,0.00
2022-09-06T02:21:43.603Z,0.00
2022-09-06T02:22:43.579Z,0.00
2022-09-06T02:23:43.575Z,0.00
2022-09-06T02:24:43.560Z,0.00
2022-09-06T02:25:43.565Z,0.00
2022-09-06T02:26:43.554Z,0.00
2022-09-06T02:27:43.534Z,0.00
2022-09-06T02:28:43.524Z,0.00
2022-09-06T02:29:43.515Z,0.00
2022-09-06T02:30:43.653Z,0.00
2022-09-06T02:31:43.508Z,0.00
2022-09-06T02:32:43.500Z,0.00
2022-09-06T02:33:43.509Z,0.00
2022-09-06T02:34:43.486Z,0.00
2022-09-06T02:35:43.470Z,0.00
2022-09-06T02:36:43.470Z,0.00
2022-09-06T02:37:43.461Z,0.00
2022-09-06T02:38:43.452Z,0.00
2022-09-06T02:39:43.558Z,0.00
2022-09-06T02:40:43.439Z,0.00
2022-09-06T02:41:43.430Z,0.00
2022-09-06T02:42:43.483Z,0.00
2022-09-06T02:43:43.409Z,0.00
2022-09-06T02:44:43.413Z,0.00
2022-09-06T02:45:43.479Z,0.00
2022-09-06T02:46:43.402Z,0.00
2022-09-06T02:47:43.402Z,0.00
2022-09-06T02:48:43.398Z,0.00
2022-09-06T02:49:43.368Z,0.00
2022-09-06T02:51:51.928Z,0.00
2022-09-06T02:52:51.983Z,0.00
2022-09-06T02:53:51.950Z,0.00
2022-09-06T02:54:51.941Z,0.00
2022-09-06T02:55:51.940Z,0.00
2022-09-06T02:56:52.551Z,0.00
2022-09-06T02:57:51.922Z,0.00
2022-09-06T02:58:51.932Z,0.00
2022-09-06T02:59:51.908Z,0.00
2022-09-06T03:00:51.930Z,0.00
2022-09-06T03:01:51.884Z,0.00
2022-09-06T03:02:51.904Z,0.00
2022-09-06T03:03:51.874Z,0.00
2022-09-06T03:04:51.895Z,0.00
2022-09-06T03:05:51.861Z,0.00
2022-09-06T03:06:51.869Z,0.00
2022-09-06T03:07:51.864Z,0.00
2022-09-06T03:08:51.834Z,0.00
2022-09-06T03:09:51.840Z,0.00
2022-09-06T03:10:51.824Z,0.00
2022-09-06T03:11:51.814Z,0.00
2022-09-06T03:12:51.833Z,0.00
2022-09-06T03:13:51.795Z,0.00
2022-09-06T03:14:54.884Z,0.00
2022-09-06T03:15:51.782Z,0.00
2022-09-06T03:16:51.816Z,0.00
2022-09-06T03:17:51.771Z,0.00
2022-09-06T03:18:51.789Z,0.00
2022-09-06T03:19:51.774Z,0.00
2022-09-06T03:20:51.753Z,0.00
2022-09-06T03:21:51.740Z,0.00
2022-09-06T03:22:51.732Z,0.00
2022-09-06T03:23:51.725Z,0.00
2022-09-06T03:24:51.713Z,0.00
2022-09-06T03:25:51.734Z,0.00
2022-09-06T03:26:51.724Z,0.00
2022-09-06T03:27:51.696Z,0.00
2022-09-06T03:28:51.703Z,0.00
2022-09-06T03:29:51.672Z,0.00
2022-09-06T03:30:51.830Z,0.00
2022-09-06T03:31:51.684Z,0.00
2022-09-06T03:32:51.653Z,0.00
2022-09-06T03:33:51.651Z,0.00
2022-09-06T03:34:51.651Z,0.00
2022-09-06T03:35:51.636Z,0.00
2022-09-06T03:36:51.628Z,0.00
2022-09-06T03:37:51.607Z,0.00
2022-09-06T03:38:51.607Z,0.00
2022-09-06T03:39:51.677Z,0.00
2022-09-06T03:40:51.617Z,0.00
2022-09-06T03:41:51.579Z,0.00
2022-09-06T03:42:51.577Z,0.00
2022-09-06T03:43:51.572Z,0.00
2022-09-06T03:44:51.559Z,0.00
2022-09-06T03:45:51.580Z,0.00
2022-09-06T03:46:51.568Z,0.00
2022-09-06T03:47:51.585Z,0.00
2022-09-06T03:48:51.535Z,0.00
2022-09-06T03:49:51.545Z,0.00
2022-09-06T03:50:51.524Z,0.00
2022-09-06T03:51:51.500Z,0.00
2022-09-06T03:52:51.527Z,0.00
2022-09-06T03:53:51.497Z,0.00
2022-09-06T03:54:51.488Z,0.00
2022-09-06T03:55:51.471Z,0.00
2022-09-06T03:56:51.500Z,0.00
2022-09-06T03:57:51.469Z,0.00
2022-09-06T03:58:51.466Z,0.00
2022-09-06T03:59:51.443Z,0.00
2022-09-06T04:00:51.456Z,0.00
2022-09-06T04:01:51.434Z,0.00
2022-09-06T04:02:51.451Z,0.00
2022-09-06T04:03:51.427Z,1.00
2022-09-06T04:04:51.418Z,1.00
2022-09-06T04:05:51.397Z,1.00
2022-09-06T04:06:51.406Z,1.00
2022-09-06T04:07:51.383Z,1.00
2022-09-06T04:08:51.398Z,1.00
2022-09-06T04:09:51.377Z,1.00
2022-09-06T04:10:51.367Z,1.00
2022-09-06T04:11:51.358Z,1.00
2022-09-06T04:12:51.351Z,1.00
2022-09-06T04:13:51.364Z,1.00
2022-09-06T04:14:51.332Z,2.00
2022-09-06T04:15:51.330Z,1.00
2022-09-06T04:16:51.427Z,1.00
2022-09-06T04:17:51.316Z,1.00
2022-09-06T04:18:51.308Z,2.00
2022-09-06T04:19:51.315Z,2.00
2022-09-06T04:20:51.307Z,1.00
2022-09-06T04:21:51.282Z,2.00
2022-09-06T04:22:51.272Z,3.00
2022-09-06T04:23:51.265Z,2.00
2022-09-06T04:24:51.259Z,4.00
2022-09-06T04:25:51.253Z,4.00
2022-09-06T04:26:51.263Z,6.00
2022-09-06T04:27:51.235Z,4.00
2022-09-06T04:28:51.256Z,4.00
2022-09-06T04:29:51.220Z,4.00
2022-09-06T04:30:51.216Z,5.00
2022-09-06T04:31:51.235Z,5.00
2022-09-06T04:32:51.205Z,7.00
2022-09-06T04:33:51.210Z,6.00
2022-09-06T04:34:51.186Z,7.00
2022-09-06T04:35:51.171Z,9.00
2022-09-06T04:36:51.196Z,9.00
2022-09-06T04:37:51.163Z,10.00
2022-09-06T04:38:51.158Z,14.00
2022-09-06T04:39:51.195Z,20.00
2022-09-06T04:40:51.144Z,26.00
2022-09-06T04:41:51.141Z,25.00
2022-09-06T04:42:51.118Z,20.00
2022-09-06T04:43:51.113Z,16.00
2022-09-06T04:44:51.125Z,15.00
2022-09-06T04:45:51.148Z,14.00
2022-09-06T04:46:51.096Z,16.00
2022-09-06T04:47:51.094Z,16.00
2022-09-06T04:48:51.085Z,19.00
2022-09-06T04:49:51.072Z,19.00
2022-09-06T04:50:51.076Z,23.00
2022-09-06T04:51:51.051Z,27.00
2022-09-06T04:52:51.056Z,30.00
2022-09-06T04:53:51.052Z,33.00
2022-09-06T04:54:51.051Z,37.00
2022-09-06T04:55:51.026Z,38.00
2022-09-06T04:56:51.020Z,41.00
2022-09-06T04:57:51.402Z,44.00
2022-09-06T04:58:51.010Z,46.00
2022-09-06T04:59:51.014Z,50.00
2022-09-06T05:00:51.023Z,50.00
2022-09-06T05:01:51.021Z,52.00
2022-09-06T05:02:50.979Z,57.00
2022-09-06T05:03:54.995Z,60.00
2022-09-06T05:04:51.992Z,61.00
2022-09-06T05:05:50.959Z,65.00
2022-09-06T05:06:50.948Z,69.00
2022-09-06T05:07:50.941Z,70.00
2022-09-06T05:08:50.935Z,76.00
2022-09-06T05:09:50.929Z,80.00
2022-09-06T05:10:50.947Z,87.00
2022-09-06T05:11:50.916Z,89.00
2022-09-06T05:12:50.905Z,91.00
2022-09-06T05:13:50.896Z,96.00
2022-09-06T05:14:50.890Z,99.00
2022-09-06T05:15:50.894Z,104.00
2022-09-06T05:16:50.952Z,106.00
2022-09-06T05:17:50.857Z,112.00
2022-09-06T05:18:50.857Z,117.00
2022-09-06T05:19:50.849Z,122.00
2022-09-06T05:20:50.853Z,125.00
2022-09-06T05:21:50.835Z,128.00
2022-09-06T05:22:50.854Z,131.00
2022-09-06T05:23:52.613Z,134.00
2022-09-06T05:24:50.826Z,137.00
2022-09-06T05:25:50.809Z,141.00
2022-09-06T05:26:50.801Z,144.00
2022-09-06T05:27:50.791Z,147.00
2022-09-06T05:28:50.800Z,151.00
2022-09-06T05:29:50.772Z,153.00
2022-09-06T05:30:50.762Z,160.00
2022-09-06T05:31:50.803Z,170.00
2022-09-06T05:32:50.750Z,182.00
2022-09-06T05:33:50.765Z,196.00
2022-09-06T05:34:50.730Z,210.00
2022-09-06T05:35:50.722Z,233.00
2022-09-06T05:36:50.720Z,254.00
2022-09-06T05:37:50.710Z,280.00
2022-09-06T05:38:50.699Z,309.00
2022-09-06T05:39:50.794Z,334.00
2022-09-06T05:40:50.687Z,358.00
2022-09-06T05:41:50.677Z,384.00
2022-09-06T05:42:50.672Z,407.00
2022-09-06T05:43:50.653Z,425.00
2022-09-06T05:44:50.656Z,442.00
2022-09-06T05:45:50.690Z,446.00
2022-09-06T05:46:50.649Z,453.00
2022-09-06T05:47:50.623Z,462.00
2022-09-06T05:48:50.645Z,463.00
2022-09-06T05:49:50.606Z,460.00
2022-09-06T05:50:50.602Z,455.00
2022-09-06T05:51:50.593Z,462.00
2022-09-06T05:52:50.591Z,472.00
2022-09-06T05:53:50.571Z,492.00
2022-09-06T05:54:50.586Z,563.00
2022-09-06T05:55:50.573Z,677.00
2022-09-06T05:56:50.564Z,742.00
2022-09-06T05:57:50.574Z,776.00
2022-09-06T05:58:50.540Z,805.00
2022-09-06T05:59:50.533Z,754.00
2022-09-06T06:00:50.559Z,605.00
2022-09-06T06:01:50.562Z,594.00
2022-09-06T06:02:50.562Z,632.00
2022-09-06T06:03:50.512Z,678.00
2022-09-06T06:04:50.497Z,702.00
2022-09-06T06:05:50.488Z,725.00
2022-09-06T06:06:50.485Z,724.00
2022-09-06T06:07:50.468Z,713.00
2022-09-06T06:08:50.479Z,709.00
2022-09-06T06:09:50.459Z,721.00
2022-09-06T06:10:50.459Z,739.00
2022-09-06T06:11:50.441Z,752.00
2022-09-06T06:12:50.428Z,756.00
2022-09-06T06:13:50.443Z,759.00
2022-09-06T06:14:50.414Z,760.00
2022-09-06T06:15:50.421Z,765.00
2022-09-06T06:16:50.436Z,770.00
2022-09-06T06:17:50.389Z,776.00
2022-09-06T06:18:52.452Z,781.00
2022-09-06T06:19:50.373Z,781.00
2022-09-06T06:20:50.387Z,782.00
2022-09-06T06:21:50.367Z,779.00
2022-09-06T06:22:50.355Z,773.00
2022-09-06T06:23:50.360Z,774.00
2022-09-06T06:24:50.338Z,781.00
2022-09-06T06:25:50.337Z,793.00
2022-09-06T06:26:50.341Z,809.00
2022-09-06T06:27:50.321Z,848.00
2022-09-06T06:28:50.307Z,947.00
2022-09-06T06:29:50.313Z,1098.00
2022-09-06T06:30:50.298Z,1102.00
2022-09-06T06:31:50.339Z,1019.00
2022-09-06T06:32:50.287Z,955.00
2022-09-06T06:33:50.273Z,885.00
2022-09-06T06:34:50.274Z,797.00
2022-09-06T06:35:50.258Z,738.00
2022-09-06T06:36:50.273Z,686.00
2022-09-06T06:37:50.237Z,644.00
2022-09-06T06:38:50.239Z,612.00
2022-09-06T06:39:50.257Z,586.00
2022-09-06T06:40:50.222Z,571.00
2022-09-06T06:41:50.219Z,556.00
2022-09-06T06:42:50.226Z,551.00
2022-09-06T06:43:50.219Z,546.00
2022-09-06T06:44:50.199Z,541.00
2022-09-06T06:45:50.212Z,538.00
2022-09-06T06:46:50.172Z,539.00
2022-09-06T06:47:50.172Z,539.00
2022-09-06T06:48:54.551Z,542.00
2022-09-06T06:49:50.159Z,548.00
2022-09-06T06:50:50.148Z,553.00
2022-09-06T06:51:50.159Z,558.00
2022-09-06T06:52:50.126Z,566.00
2022-09-06T06:53:50.119Z,578.00
2022-09-06T06:54:50.113Z,594.00
2022-09-06T06:55:50.105Z,618.00
2022-09-06T06:56:50.097Z,648.00
2022-09-06T06:57:50.109Z,681.00
2022-09-06T06:58:50.089Z,710.00
2022-09-06T06:59:50.081Z,729.00
2022-09-06T07:00:50.214Z,745.00
2022-09-06T07:01:50.159Z,774.00
2022-09-06T07:02:50.050Z,817.00
2022-09-06T07:03:50.060Z,889.00
2022-09-06T07:04:50.112Z,980.00
2022-09-06T07:07:51.013Z,1752.00
2022-09-06T07:08:50.003Z,1730.00
2022-09-06T07:10:51.012Z,2396.00
2022-09-06T07:11:49.985Z,3303.00
2022-09-06T07:12:49.977Z,7439.00
2022-09-06T07:13:49.971Z,1590.00
2022-09-06T07:14:49.980Z,1168.00
2022-09-06T07:15:49.961Z,992.00
2022-09-06T07:16:49.986Z,904.00
2022-09-06T07:17:49.964Z,847.00
2022-09-06T07:18:49.936Z,810.00
2022-09-06T07:21:50.919Z,779.00
2022-09-06T07:22:49.897Z,800.00
2022-09-06T07:24:50.892Z,879.00
2022-09-06T07:25:49.879Z,936.00
2022-09-06T07:27:50.907Z,1093.00
2022-09-06T07:28:49.858Z,1212.00
2022-09-06T07:29:49.877Z,1418.00
2022-09-06T07:30:49.838Z,1683.00
2022-09-06T07:32:50.855Z,2490.00
2022-09-06T07:33:53.781Z,3132.00
2022-09-06T07:34:50.807Z,4036.00
2022-09-06T07:35:49.798Z,5668.00
2022-09-06T07:36:49.797Z,19583.00
2022-09-06T07:37:49.787Z,26930.00
2022-09-06T07:38:49.803Z,18452.00
2022-09-06T07:39:49.848Z,16226.00
2022-09-06T07:40:49.761Z,27260.00
2022-09-06T07:41:49.766Z,12468.00
2022-09-06T07:42:49.764Z,4712.00
2022-09-06T07:43:49.747Z,3751.00
2022-09-06T07:44:49.766Z,3818.00
2022-09-06T07:45:49.734Z,3927.00
2022-09-06T07:46:50.106Z,3018.00
2022-09-06T07:48:49.717Z,2152.00
2022-09-06T07:50:51.881Z,1976.00
2022-09-06T07:51:49.683Z,2006.00
2022-09-06T07:53:24.608Z,1979.00
2022-09-06T07:53:57.885Z,1983.00
2022-09-06T07:54:50.653Z,2042.00
2022-09-06T07:55:49.692Z,2174.00
2022-09-06T07:56:49.638Z,2326.00
2022-09-06T07:57:49.629Z,2943.00
2022-09-06T07:58:49.637Z,5876.00
2022-09-06T07:59:49.634Z,3562.00
2022-09-06T08:00:49.646Z,3657.00
2022-09-06T08:01:49.654Z,4989.00
2022-09-06T08:02:49.627Z,5103.00
2022-09-06T08:03:49.601Z,4316.00
2022-09-06T08:04:51.633Z,3700.00
2022-09-06T08:08:58.255Z,5469.00
2022-09-06T08:09:50.575Z,5177.00
2022-09-06T08:10:49.560Z,5899.00
2022-09-06T08:11:49.539Z,5968.00
2022-09-06T08:12:49.528Z,4334.00
2022-09-06T08:13:49.515Z,5400.00
2022-09-06T08:14:49.541Z,6729.00
2022-09-06T08:15:49.523Z,3718.00
2022-09-06T08:16:49.509Z,3165.00
2022-09-06T08:17:49.490Z,2763.00
2022-09-06T08:18:49.490Z,2354.00
2022-09-06T08:19:49.478Z,2091.00
2022-09-06T08:20:49.487Z,1948.00
2022-09-06T08:21:49.465Z,1864.00
2022-09-06T08:22:49.474Z,1808.00
2022-09-06T08:23:49.464Z,1768.00
2022-09-06T08:24:49.451Z,1756.00
2022-09-06T08:25:49.493Z,1756.00
2022-09-06T08:26:49.438Z,1764.00
2022-09-06T08:27:49.432Z,1785.00
2022-09-06T08:28:49.420Z,1825.00
2022-09-06T08:29:49.412Z,1889.00
2022-09-06T08:30:49.420Z,1972.00
2022-09-06T08:31:49.477Z,2074.00
2022-09-06T08:32:49.395Z,2194.00
2022-09-06T08:33:49.382Z,2309.00
2022-09-06T08:34:49.382Z,2360.00
2022-09-06T08:35:49.371Z,2453.00
2022-09-06T08:36:49.371Z,2655.00
2022-09-06T08:37:49.379Z,2875.00
2022-09-06T08:38:49.350Z,2938.00
2022-09-06T08:39:49.379Z,2935.00
2022-09-06T08:40:49.344Z,2994.00
2022-09-06T08:41:49.334Z,3071.00
2022-09-06T08:42:49.347Z,3217.00
2022-09-06T08:43:49.524Z,3388.00
2022-09-06T08:45:51.474Z,4754.00
2022-09-06T08:46:49.358Z,3503.00
2022-09-06T08:47:49.306Z,3399.00
2022-09-06T08:48:49.276Z,3470.00
2022-09-06T08:49:49.271Z,4108.00
2022-09-06T08:50:49.267Z,3591.00
2022-09-06T08:51:56.263Z,3539.00
2022-09-06T08:53:06.533Z,6097.00
2022-09-06T08:53:50.253Z,6291.00
2022-09-06T08:54:49.258Z,6237.00
2022-09-06T08:55:49.234Z,6153.00
2022-09-06T08:56:49.221Z,6032.00
2022-09-06T08:57:49.230Z,5751.00
2022-09-06T08:58:49.226Z,6150.00
2022-09-06T08:59:49.189Z,4317.00
2022-09-06T09:00:49.216Z,4004.00
2022-09-06T09:01:49.205Z,3831.00
2022-09-06T09:02:49.190Z,3942.00
2022-09-06T09:03:49.189Z,3852.00
2022-09-06T09:04:49.175Z,4748.00
2022-09-06T09:05:49.166Z,5588.00
2022-09-06T09:06:49.150Z,5931.00
2022-09-06T09:07:49.151Z,5782.00
2022-09-06T09:08:49.128Z,5648.00
2022-09-06T09:09:49.123Z,5501.00
2022-09-06T09:10:49.140Z,5357.00
2022-09-06T09:11:49.119Z,5233.00
2022-09-06T09:12:49.098Z,5104.00
2022-09-06T09:13:49.106Z,5006.00
2022-09-06T09:14:49.082Z,4902.00
2022-09-06T09:15:49.159Z,4816.00
2022-09-06T09:16:49.103Z,4728.00
2022-09-06T09:17:49.071Z,4664.00
2022-09-06T09:18:49.055Z,4602.00
2022-09-06T09:19:49.059Z,4547.00
2022-09-06T09:20:49.047Z,4494.00
2022-09-06T09:21:49.048Z,4442.00
2022-09-06T09:22:49.046Z,4401.00
2022-09-06T09:23:49.018Z,4359.00
2022-09-06T09:24:49.029Z,4355.00
2022-09-06T09:25:49.004Z,4358.00
2022-09-06T09:26:49.007Z,4380.00
2022-09-06T09:27:49.016Z,4404.00
2022-09-06T09:28:48.994Z,4425.00
2022-09-06T09:30:50.232Z,4477.00
2022-09-06T09:31:53.332Z,4522.00
2022-09-06T09:32:48.963Z,4540.00
2022-09-06T09:33:48.974Z,4518.00
2022-09-06T09:34:48.954Z,4466.00
2022-09-06T09:35:48.941Z,4426.00
2022-09-06T09:37:52.973Z,4328.00
2022-09-06T09:38:48.929Z,4269.00
2022-09-06T09:39:48.954Z,4217.00
2022-09-06T09:40:48.906Z,4160.00
2022-09-06T09:41:48.916Z,4106.00
2022-09-06T09:42:48.918Z,4061.00
2022-09-06T09:43:48.888Z,4009.00
2022-09-06T09:44:48.879Z,3981.00
2022-09-06T09:45:48.914Z,3929.00
2022-09-06T09:46:48.908Z,3880.00
2022-09-06T09:47:48.858Z,3848.00
2022-09-06T09:48:48.848Z,3825.00
2022-09-06T09:49:48.833Z,3789.00
2022-09-06T09:50:48.834Z,3766.00
2022-09-06T09:51:48.856Z,3731.00
2022-09-06T09:52:48.820Z,3712.00
2022-09-06T09:53:48.806Z,3675.00
2022-09-06T09:54:48.818Z,3647.00
2022-09-06T09:55:48.828Z,3629.00
2022-09-06T09:56:48.795Z,3606.00
2022-09-06T09:57:48.781Z,3586.00
2022-09-06T09:58:48.792Z,3577.00
2022-09-06T09:59:48.773Z,3562.00
2022-09-06T10:00:48.828Z,3550.00
2022-09-06T10:01:48.779Z,3535.00
2022-09-06T10:02:48.758Z,3525.00
2022-09-06T10:04:49.748Z,3499.00
2022-09-06T10:05:48.811Z,3487.00
2022-09-06T10:07:49.743Z,3463.00
2022-09-06T10:08:48.723Z,3446.00
2022-09-06T10:09:48.729Z,3441.00
2022-09-06T10:10:48.702Z,3430.00
2022-09-06T10:11:48.689Z,3422.00
2022-09-06T10:12:48.682Z,3414.00
2022-09-06T10:13:48.703Z,3407.00
2022-09-06T10:14:48.685Z,3390.00
2022-09-06T10:15:48.702Z,3377.00
2022-09-06T10:16:48.665Z,3362.00
2022-09-06T10:17:48.655Z,3356.00
2022-09-06T10:18:48.657Z,3340.00
2022-09-06T10:19:48.656Z,3333.00
2022-09-06T10:20:48.627Z,3318.00
2022-09-06T10:21:48.613Z,3309.00
2022-09-06T10:22:48.620Z,3300.00
2022-09-06T10:24:48.618Z,3282.00
2022-09-06T10:25:49.738Z,3274.00
2022-09-06T10:26:48.587Z,3265.00
2022-09-06T10:28:01.674Z,3254.00
2022-09-06T10:28:49.585Z,3243.00
2022-09-06T10:29:48.586Z,3233.00
2022-09-06T10:30:48.580Z,3218.00
2022-09-06T10:31:48.624Z,3207.00
2022-09-06T10:32:48.550Z,3203.00
2022-09-06T10:33:48.534Z,3192.00
2022-09-06T10:34:48.539Z,3183.00
2022-09-06T10:35:48.521Z,3169.00
2022-09-06T10:36:48.556Z,3164.00
2022-09-06T10:37:48.515Z,3152.00
2022-09-06T10:38:48.499Z,3144.00
2022-09-06T10:39:48.563Z,3138.00
2022-09-06T10:40:48.499Z,3123.00
2022-09-06T10:41:48.492Z,3118.00
2022-09-06T10:42:48.503Z,3106.00
2022-09-06T10:43:48.486Z,3094.00
2022-09-06T10:44:48.468Z,3086.00
2022-09-06T10:45:48.450Z,3076.00
2022-09-06T10:46:48.477Z,3076.00
2022-09-06T10:47:48.443Z,3067.00
2022-09-06T10:48:48.460Z,3067.00
2022-09-06T10:49:48.433Z,3055.00
2022-09-06T10:50:48.426Z,3034.00
2022-09-06T10:51:48.434Z,3025.00
2022-09-06T10:52:48.409Z,3028.00
2022-09-06T10:53:48.411Z,3024.00
2022-09-06T10:54:48.393Z,3018.00
2022-09-06T10:55:48.384Z,3013.00
2022-09-06T10:56:48.379Z,3006.00
2022-09-06T10:59:51.845Z,2990.00
2022-09-06T11:00:48.352Z,2986.00
2022-09-06T11:01:48.423Z,2981.00
2022-09-06T11:02:48.668Z,2960.00
2022-09-06T11:03:58.319Z,2960.00
2022-09-06T11:05:48.316Z,2966.00
2022-09-06T11:06:48.308Z,2973.00
2022-09-06T11:08:51.175Z,2978.00
2022-09-06T11:09:48.304Z,2975.00
2022-09-06T11:10:48.285Z,2983.00
2022-09-06T11:11:48.272Z,2969.00
2022-09-06T11:12:48.288Z,2962.00
2022-09-06T11:13:48.260Z,2950.00
2022-09-06T11:14:48.251Z,2945.00
2022-09-06T11:15:48.322Z,2937.00
2022-09-06T11:16:48.259Z,2927.00
2022-09-06T11:17:48.231Z,2939.00
2022-09-06T11:18:48.217Z,2943.00
2022-09-06T11:19:48.210Z,2928.00
2022-09-06T11:20:48.219Z,2933.00
2022-09-06T11:21:48.215Z,2926.00
2022-09-06T11:22:48.201Z,2920.00
2022-09-06T11:23:48.237Z,2916.00
2022-09-06T11:24:48.222Z,2900.00
2022-09-06T11:25:48.201Z,2898.00
2022-09-06T11:26:48.176Z,2882.00
2022-09-06T11:27:48.171Z,2870.00
2022-09-06T11:28:48.159Z,2856.00
2022-09-06T11:29:48.149Z,2843.00
2022-09-06T11:30:48.253Z,2817.00
2022-09-06T11:32:49.130Z,2867.00
2022-09-06T11:33:48.125Z,2869.00
2022-09-06T11:34:48.112Z,2879.00
2022-09-06T11:35:48.110Z,2865.00
2022-09-06T11:36:48.115Z,2866.00
2022-09-06T11:37:48.107Z,2871.00
2022-09-06T11:38:48.096Z,2853.00
2022-09-06T11:40:48.078Z,2833.00
2022-09-06T11:41:48.081Z,2831.00
2022-09-06T11:42:48.083Z,2830.00
2022-09-06T11:43:48.058Z,2833.00
2022-09-06T11:44:48.063Z,2835.00
2022-09-06T11:45:48.040Z,2829.00
2022-09-06T11:46:48.065Z,2813.00
2022-09-06T11:47:48.049Z,2805.00
2022-09-06T11:48:48.026Z,2795.00
2022-09-06T11:49:48.015Z,2780.00
2022-09-06T11:50:48.005Z,2783.00
2022-09-06T11:51:48.037Z,2784.00
2022-09-06T11:52:47.997Z,2782.00
2022-09-06T11:53:47.982Z,2782.00
2022-09-06T11:54:47.969Z,2791.00
2022-09-06T11:55:47.964Z,2799.00
2022-09-06T11:56:47.963Z,2756.00
2022-09-06T11:57:47.971Z,2762.00
2022-09-06T11:58:47.944Z,2740.00
2022-09-06T11:59:47.936Z,2717.00
2022-09-06T12:00:47.935Z,2710.00
2022-09-06T12:01:47.937Z,2705.00
2022-09-06T12:02:48.038Z,2682.00
2022-09-06T12:04:48.907Z,2714.00
2022-09-06T12:05:47.917Z,2695.00
2022-09-06T12:06:47.899Z,1904.00
2022-09-06T12:07:47.889Z,2622.00
2022-09-06T12:08:47.880Z,2625.00
2022-09-06T12:09:47.874Z,2652.00
2022-09-06T12:10:47.872Z,2666.00
2022-09-06T12:11:47.876Z,2537.00
2022-09-06T12:12:47.850Z,2651.00
2022-09-06T12:13:47.850Z,2702.00
2022-09-06T12:14:47.835Z,1217.00
2022-09-06T12:15:47.843Z,1227.00
2022-09-06T12:16:47.835Z,2725.00
2022-09-06T12:17:47.834Z,1353.00
2022-09-06T12:18:47.818Z,2677.00
2022-09-06T12:19:47.802Z,1111.00
2022-09-06T12:20:47.795Z,1180.00
2022-09-06T12:21:47.784Z,1264.00
2022-09-06T12:22:47.800Z,1175.00
2022-09-06T12:23:47.772Z,1151.00
2022-09-06T12:24:47.764Z,2458.00
2022-09-06T12:25:47.753Z,1140.00
2022-09-06T12:26:51.854Z,1260.00
2022-09-06T12:27:48.760Z,2610.00
2022-09-06T12:28:47.736Z,2560.00
2022-09-06T12:29:47.730Z,2639.00
2022-09-06T12:30:47.766Z,1163.00
2022-09-06T12:31:47.732Z,1114.00
2022-09-06T12:32:47.707Z,1109.00
2022-09-06T12:33:47.699Z,1128.00
2022-09-06T12:34:47.738Z,1196.00
2022-09-06T12:36:47.674Z,1945.00
2022-09-06T12:37:47.673Z,2094.00
2022-09-06T12:38:47.679Z,2398.00
2022-09-06T12:39:47.772Z,2570.00
2022-09-06T12:40:47.655Z,2552.00
2022-09-06T12:41:47.667Z,2536.00
2022-09-06T12:42:47.637Z,2528.00
2022-09-06T12:43:47.630Z,2554.00
2022-09-06T12:44:47.660Z,2553.00
2022-09-06T12:45:47.632Z,2567.00
2022-09-06T12:46:47.693Z,2567.00
2022-09-06T12:47:47.644Z,2579.00
2022-09-06T12:48:47.596Z,2563.00
2022-09-06T12:49:47.584Z,2555.00
2022-09-06T12:50:47.592Z,1253.00
2022-09-06T12:51:47.577Z,1250.00
2022-09-06T12:52:47.587Z,2363.00
2022-09-06T12:53:47.590Z,1612.00
2022-09-06T12:54:47.587Z,2014.00
2022-09-06T12:55:47.557Z,2478.00
2022-09-06T12:56:47.558Z,2454.00
2022-09-06T12:57:47.548Z,2446.00
2022-09-06T12:58:47.538Z,2442.00
2022-09-06T12:59:47.531Z,2416.00
2022-09-06T13:00:47.529Z,2412.00
2022-09-06T13:01:47.591Z,2426.00
2022-09-06T13:02:47.624Z,2043.00
2022-09-06T13:03:47.497Z,1244.00
2022-09-06T13:04:47.491Z,1226.00